sensor_id;sensor_type;location;lat;lon;timestamp;P1;durP1;ratioP1;P2;durP2;ratioP2
20739;SDS011;10530;49.968;19.844;2023-03-13T00:00:03;7.30;;;1.90;;
20739;SDS011;10530;49.968;19.844;2023-03-13T00:05:07;2.97;;;1.17;;
20739;SDS011;10530;49.968;19.844;2023-03-13T00:10:10;5.65;;;1.10;;
20739;SDS011;10530;49.968;19.844;2023-03-13T00:15:13;7.05;;;1.70;;
20739;SDS011;10530;49.968;19.844;2023-03-13T00:20:15;4.03;;;1.50;;
20739;SDS011;10530;49.968;19.844;2023-03-13T00:25:18;4.25;;;1.30;;
20739;SDS011;10530;49.968;19.844;2023-03-13T00:30:21;3.83;;;1.47;;
20739;SDS011;10530;49.968;19.844;2023-03-13T00:35:23;3.42;;;1.50;;
20739;SDS011;10530;49.968;19.844;2023-03-13T00:40:27;4.28;;;1.55;;
20739;SDS011;10530;49.968;19.844;2023-03-13T00:45:29;3.97;;;1.53;;
20739;SDS011;10530;49.968;19.844;2023-03-13T00:50:32;4.60;;;2.03;;
20739;SDS011;10530;49.968;19.844;2023-03-13T00:55:35;5.03;;;1.80;;
20739;SDS011;10530;49.968;19.844;2023-03-13T01:00:37;4.18;;;1.80;;
20739;SDS011;10530;49.968;19.844;2023-03-13T01:05:40;4.50;;;2.05;;
20739;SDS011;10530;49.968;19.844;2023-03-13T01:10:43;6.00;;;1.87;;
20739;SDS011;10530;49.968;19.844;2023-03-13T01:15:46;5.75;;;1.95;;
20739;SDS011;10530;49.968;19.844;2023-03-13T01:20:48;6.90;;;2.40;;
20739;SDS011;10530;49.968;19.844;2023-03-13T01:25:53;4.05;;;1.70;;
20739;SDS011;10530;49.968;19.844;2023-03-13T01:30:56;7.32;;;2.13;;
20739;SDS011;10530;49.968;19.844;2023-03-13T01:36:00;4.00;;;1.53;;
20739;SDS011;10530;49.968;19.844;2023-03-13T01:41:05;5.15;;;2.03;;
20739;SDS011;10530;49.968;19.844;2023-03-13T01:46:10;4.13;;;1.90;;
20739;SDS011;10530;49.968;19.844;2023-03-13T01:51:41;2.95;;;1.10;;
20739;SDS011;10530;49.968;19.844;2023-03-13T02:02:40;4.67;;;1.90;;
20739;SDS011;10530;49.968;19.844;2023-03-13T02:07:54;4.78;;;1.90;;
20739;SDS011;10530;49.968;19.844;2023-03-13T02:13:01;4.70;;;1.60;;
20739;SDS011;10530;49.968;19.844;2023-03-13T02:18:04;4.10;;;1.80;;
20739;SDS011;10530;49.968;19.844;2023-03-13T02:28:33;4.97;;;2.03;;
20739;SDS011;10530;49.968;19.844;2023-03-13T02:33:44;6.22;;;2.03;;
20739;SDS011;10530;49.968;19.844;2023-03-13T02:38:52;4.07;;;1.43;;
20739;SDS011;10530;49.968;19.844;2023-03-13T02:43:59;4.05;;;1.65;;
20739;SDS011;10530;49.968;19.844;2023-03-13T02:49:22;4.53;;;1.60;;
20739;SDS011;10530;49.968;19.844;2023-03-13T02:54:30;4.33;;;1.40;;
20739;SDS011;10530;49.968;19.844;2023-03-13T02:59:37;4.28;;;1.55;;
20739;SDS011;10530;49.968;19.844;2023-03-13T03:04:40;3.80;;;1.47;;
20739;SDS011;10530;49.968;19.844;2023-03-13T03:09:44;3.10;;;1.20;;
20739;SDS011;10530;49.968;19.844;2023-03-13T03:14:52;5.18;;;1.50;;
20739;SDS011;10530;49.968;19.844;2023-03-13T03:19:56;3.87;;;1.30;;
20739;SDS011;10530;49.968;19.844;2023-03-13T03:24:59;5.28;;;1.67;;
20739;SDS011;10530;49.968;19.844;2023-03-13T03:30:05;5.10;;;1.83;;
20739;SDS011;10530;49.968;19.844;2023-03-13T03:35:10;2.10;;;0.70;;
20739;SDS011;10530;49.968;19.844;2023-03-13T03:40:13;3.65;;;1.45;;
20739;SDS011;10530;49.968;19.844;2023-03-13T03:45:17;4.60;;;1.83;;
20739;SDS011;10530;49.968;19.844;2023-03-13T03:50:20;4.88;;;1.90;;
20739;SDS011;10530;49.968;19.844;2023-03-13T03:55:30;5.33;;;1.60;;
20739;SDS011;10530;49.968;19.844;2023-03-13T04:00:36;3.63;;;1.50;;
20739;SDS011;10530;49.968;19.844;2023-03-13T04:05:39;5.43;;;1.73;;
20739;SDS011;10530;49.968;19.844;2023-03-13T04:10:42;3.97;;;1.50;;
20739;SDS011;10530;49.968;19.844;2023-03-13T04:15:45;5.13;;;1.65;;
20739;SDS011;10530;49.968;19.844;2023-03-13T04:20:58;4.23;;;1.90;;
20739;SDS011;10530;49.968;19.844;2023-03-13T04:26:11;5.13;;;1.85;;
20739;SDS011;10530;49.968;19.844;2023-03-13T04:31:15;2.95;;;1.17;;
20739;SDS011;10530;49.968;19.844;2023-03-13T04:36:46;5.73;;;1.93;;
20739;SDS011;10530;49.968;19.844;2023-03-13T04:42:08;3.85;;;1.58;;
20739;SDS011;10530;49.968;19.844;2023-03-13T04:47:38;4.07;;;1.53;;
20739;SDS011;10530;49.968;19.844;2023-03-13T04:52:59;7.10;;;1.90;;
20739;SDS011;10530;49.968;19.844;2023-03-13T04:58:20;5.03;;;1.30;;
20739;SDS011;10530;49.968;19.844;2023-03-13T05:03:41;4.93;;;1.90;;
20739;SDS011;10530;49.968;19.844;2023-03-13T05:09:04;7.03;;;2.30;;
20739;SDS011;10530;49.968;19.844;2023-03-13T05:14:27;5.23;;;1.93;;
20739;SDS011;10530;49.968;19.844;2023-03-13T05:19:45;5.47;;;1.67;;
20739;SDS011;10530;49.968;19.844;2023-03-13T05:25:13;6.53;;;1.63;;
20739;SDS011;10530;49.968;19.844;2023-03-13T05:30:46;5.13;;;2.03;;
20739;SDS011;10530;49.968;19.844;2023-03-13T05:36:07;5.60;;;2.28;;
20739;SDS011;10530;49.968;19.844;2023-03-13T05:41:36;5.40;;;1.40;;
20739;SDS011;10530;49.968;19.844;2023-03-13T05:47:01;4.68;;;1.73;;
20739;SDS011;10530;49.968;19.844;2023-03-13T05:52:36;5.75;;;1.90;;
20739;SDS011;10530;49.968;19.844;2023-03-13T05:57:53;7.73;;;2.30;;
20739;SDS011;10530;49.968;19.844;2023-03-13T06:03:16;4.40;;;1.80;;
20739;SDS011;10530;49.968;19.844;2023-03-13T06:08:21;6.20;;;2.13;;
20739;SDS011;10530;49.968;19.844;2023-03-13T06:13:24;5.57;;;2.45;;
20739;SDS011;10530;49.968;19.844;2023-03-13T06:18:29;10.07;;;2.45;;
20739;SDS011;10530;49.968;19.844;2023-03-13T06:23:32;6.47;;;2.37;;
20739;SDS011;10530;49.968;19.844;2023-03-13T06:28:36;6.53;;;2.65;;
20739;SDS011;10530;49.968;19.844;2023-03-13T06:33:39;4.93;;;2.00;;
20739;SDS011;10530;49.968;19.844;2023-03-13T06:38:41;7.70;;;2.47;;
20739;SDS011;10530;49.968;19.844;2023-03-13T06:43:44;6.10;;;2.33;;
20739;SDS011;10530;49.968;19.844;2023-03-13T06:48:47;4.83;;;2.00;;
20739;SDS011;10530;49.968;19.844;2023-03-13T06:53:51;5.53;;;1.90;;
20739;SDS011;10530;49.968;19.844;2023-03-13T06:58:54;5.60;;;2.13;;
20739;SDS011;10530;49.968;19.844;2023-03-13T07:03:59;6.93;;;2.15;;
20739;SDS011;10530;49.968;19.844;2023-03-13T07:09:02;7.22;;;1.80;;
20739;SDS011;10530;49.968;19.844;2023-03-13T07:14:06;4.23;;;1.40;;
20739;SDS011;10530;49.968;19.844;2023-03-13T07:19:17;7.85;;;2.25;;
20739;SDS011;10530;49.968;19.844;2023-03-13T07:24:20;5.23;;;1.70;;
20739;SDS011;10530;49.968;19.844;2023-03-13T07:29:23;8.75;;;1.95;;
20739;SDS011;10530;49.968;19.844;2023-03-13T07:34:26;4.72;;;2.13;;
20739;SDS011;10530;49.968;19.844;2023-03-13T07:39:29;6.10;;;2.00;;
20739;SDS011;10530;49.968;19.844;2023-03-13T07:44:32;7.47;;;1.80;;
20739;SDS011;10530;49.968;19.844;2023-03-13T07:49:34;4.93;;;1.70;;
20739;SDS011;10530;49.968;19.844;2023-03-13T07:54:42;5.30;;;1.58;;
20739;SDS011;10530;49.968;19.844;2023-03-13T07:59:44;20.40;;;1.75;;
20739;SDS011;10530;49.968;19.844;2023-03-13T08:04:50;5.10;;;1.60;;
20739;SDS011;10530;49.968;19.844;2023-03-13T08:09:54;6.00;;;1.55;;
20739;SDS011;10530;49.968;19.844;2023-03-13T08:14:56;6.73;;;2.27;;
20739;SDS011;10530;49.968;19.844;2023-03-13T08:19:59;4.95;;;1.30;;
20739;SDS011;10530;49.968;19.844;2023-03-13T08:25:03;4.40;;;1.70;;
20739;SDS011;10530;49.968;19.844;2023-03-13T08:30:06;4.90;;;1.90;;
20739;SDS011;10530;49.968;19.844;2023-03-13T08:35:10;5.95;;;1.90;;
20739;SDS011;10530;49.968;19.844;2023-03-13T08:40:13;4.23;;;1.50;;
20739;SDS011;10530;49.968;19.844;2023-03-13T08:45:16;8.48;;;2.00;;
20739;SDS011;10530;49.968;19.844;2023-03-13T08:50:19;6.60;;;1.70;;
20739;SDS011;10530;49.968;19.844;2023-03-13T08:55:22;4.43;;;1.90;;
20739;SDS011;10530;49.968;19.844;2023-03-13T09:00:27;6.05;;;1.92;;
20739;SDS011;10530;49.968;19.844;2023-03-13T09:05:29;6.30;;;1.87;;
20739;SDS011;10530;49.968;19.844;2023-03-13T09:10:37;6.03;;;2.03;;
20739;SDS011;10530;49.968;19.844;2023-03-13T09:15:39;9.60;;;2.33;;
20739;SDS011;10530;49.968;19.844;2023-03-13T09:20:42;7.27;;;2.10;;
20739;SDS011;10530;49.968;19.844;2023-03-13T09:25:45;4.32;;;1.40;;
20739;SDS011;10530;49.968;19.844;2023-03-13T09:30:49;5.80;;;2.33;;
20739;SDS011;10530;49.968;19.844;2023-03-13T09:35:52;5.20;;;2.00;;
20739;SDS011;10530;49.968;19.844;2023-03-13T09:40:59;5.75;;;2.05;;
20739;SDS011;10530;49.968;19.844;2023-03-13T09:46:24;5.70;;;2.23;;
20739;SDS011;10530;49.968;19.844;2023-03-13T09:51:35;6.32;;;2.08;;
20739;SDS011;10530;49.968;19.844;2023-03-13T09:56:50;5.83;;;1.67;;
20739;SDS011;10530;49.968;19.844;2023-03-13T10:02:06;3.50;;;1.60;;
20739;SDS011;10530;49.968;19.844;2023-03-13T10:07:26;5.55;;;2.00;;
20739;SDS011;10530;49.968;19.844;2023-03-13T10:12:30;3.30;;;1.40;;
20739;SDS011;10530;49.968;19.844;2023-03-13T10:17:41;3.75;;;1.55;;
20739;SDS011;10530;49.968;19.844;2023-03-13T10:22:44;4.30;;;1.47;;
20739;SDS011;10530;49.968;19.844;2023-03-13T10:27:50;3.83;;;1.38;;
20739;SDS011;10530;49.968;19.844;2023-03-13T10:32:58;2.85;;;1.10;;
20739;SDS011;10530;49.968;19.844;2023-03-13T10:38:19;3.93;;;1.67;;
20739;SDS011;10530;49.968;19.844;2023-03-13T10:43:26;3.65;;;1.23;;
20739;SDS011;10530;49.968;19.844;2023-03-13T10:48:34;4.93;;;1.90;;
20739;SDS011;10530;49.968;19.844;2023-03-13T10:53:38;5.32;;;1.95;;
20739;SDS011;10530;49.968;19.844;2023-03-13T10:58:49;5.65;;;1.25;;
20739;SDS011;10530;49.968;19.844;2023-03-13T11:03:54;4.33;;;1.10;;
20739;SDS011;10530;49.968;19.844;2023-03-13T11:14:18;3.07;;;1.03;;
20739;SDS011;10530;49.968;19.844;2023-03-13T11:19:27;2.90;;;0.95;;
20739;SDS011;10530;49.968;19.844;2023-03-13T11:51:47;3.30;;;1.02;;
20739;SDS011;10530;49.968;19.844;2023-03-13T12:02:27;2.28;;;0.60;;
20739;SDS011;10530;49.968;19.844;2023-03-13T12:07:40;3.33;;;0.90;;
20739;SDS011;10530;49.968;19.844;2023-03-13T12:18:34;2.90;;;0.73;;
20739;SDS011;10530;49.968;19.844;2023-03-13T12:29:11;3.63;;;1.08;;
20739;SDS011;10530;49.968;19.844;2023-03-13T12:45:19;2.28;;;0.70;;
20739;SDS011;10530;49.968;19.844;2023-03-13T12:55:49;4.60;;;1.15;;
20739;SDS011;10530;49.968;19.844;2023-03-13T13:01:14;3.77;;;1.10;;
20739;SDS011;10530;49.968;19.844;2023-03-13T13:12:19;3.53;;;1.08;;
20739;SDS011;10530;49.968;19.844;2023-03-13T13:27:44;3.67;;;1.00;;
20739;SDS011;10530;49.968;19.844;2023-03-13T13:32:48;4.25;;;1.30;;
20739;SDS011;10530;49.968;19.844;2023-03-13T13:38:19;3.13;;;1.02;;
20739;SDS011;10530;49.968;19.844;2023-03-13T13:43:20;3.83;;;1.33;;
20739;SDS011;10530;49.968;19.844;2023-03-13T13:48:26;3.75;;;0.82;;
20739;SDS011;10530;49.968;19.844;2023-03-13T14:04:27;4.13;;;1.17;;
20739;SDS011;10530;49.968;19.844;2023-03-13T14:09:37;5.10;;;1.30;;
20739;SDS011;10530;49.968;19.844;2023-03-13T14:20:28;3.83;;;1.10;;
20739;SDS011;10530;49.968;19.844;2023-03-13T14:25:42;3.78;;;1.30;;
20739;SDS011;10530;49.968;19.844;2023-03-13T14:30:49;3.17;;;1.10;;
20739;SDS011;10530;49.968;19.844;2023-03-13T14:35:53;3.43;;;1.10;;
20739;SDS011;10530;49.968;19.844;2023-03-13T14:40:58;4.05;;;1.27;;
20739;SDS011;10530;49.968;19.844;2023-03-13T14:46:11;2.60;;;0.70;;
20739;SDS011;10530;49.968;19.844;2023-03-13T14:51:23;3.60;;;0.95;;
20739;SDS011;10530;49.968;19.844;2023-03-13T14:56:35;3.05;;;0.85;;
20739;SDS011;10530;49.968;19.844;2023-03-13T15:01:43;3.57;;;1.13;;
20739;SDS011;10530;49.968;19.844;2023-03-13T15:06:47;3.60;;;1.10;;
20739;SDS011;10530;49.968;19.844;2023-03-13T15:11:54;3.73;;;1.07;;
20739;SDS011;10530;49.968;19.844;2023-03-13T15:17:01;3.70;;;1.23;;
20739;SDS011;10530;49.968;19.844;2023-03-13T15:22:10;3.10;;;1.13;;
20739;SDS011;10530;49.968;19.844;2023-03-13T15:27:18;3.30;;;1.00;;
20739;SDS011;10530;49.968;19.844;2023-03-13T15:32:24;4.55;;;1.60;;
20739;SDS011;10530;49.968;19.844;2023-03-13T15:37:32;4.23;;;1.30;;
20739;SDS011;10530;49.968;19.844;2023-03-13T15:42:36;3.88;;;1.20;;
20739;SDS011;10530;49.968;19.844;2023-03-13T15:47:39;2.85;;;0.98;;
20739;SDS011;10530;49.968;19.844;2023-03-13T15:52:42;5.00;;;1.30;;
20739;SDS011;10530;49.968;19.844;2023-03-13T15:57:45;3.70;;;1.30;;
20739;SDS011;10530;49.968;19.844;2023-03-13T16:02:51;4.67;;;1.50;;
20739;SDS011;10530;49.968;19.844;2023-03-13T16:07:54;4.45;;;1.83;;
20739;SDS011;10530;49.968;19.844;2023-03-13T16:12:57;4.65;;;2.00;;
20739;SDS011;10530;49.968;19.844;2023-03-13T16:18:00;4.90;;;1.87;;
20739;SDS011;10530;49.968;19.844;2023-03-13T16:23:03;3.72;;;1.40;;
20739;SDS011;10530;49.968;19.844;2023-03-13T16:28:09;4.03;;;1.50;;
20739;SDS011;10530;49.968;19.844;2023-03-13T16:33:13;3.33;;;0.98;;
20739;SDS011;10530;49.968;19.844;2023-03-13T16:38:16;4.22;;;1.80;;
20739;SDS011;10530;49.968;19.844;2023-03-13T16:43:21;7.00;;;1.80;;
20739;SDS011;10530;49.968;19.844;2023-03-13T16:48:24;4.80;;;1.45;;
20739;SDS011;10530;49.968;19.844;2023-03-13T16:53:26;6.20;;;1.80;;
20739;SDS011;10530;49.968;19.844;2023-03-13T16:58:29;5.65;;;2.03;;
20739;SDS011;10530;49.968;19.844;2023-03-13T17:03:32;4.15;;;1.45;;
20739;SDS011;10530;49.968;19.844;2023-03-13T17:08:35;5.93;;;1.70;;
20739;SDS011;10530;49.968;19.844;2023-03-13T17:13:38;4.95;;;1.77;;
20739;SDS011;10530;49.968;19.844;2023-03-13T17:18:41;4.57;;;1.70;;
20739;SDS011;10530;49.968;19.844;2023-03-13T17:23:45;5.63;;;1.88;;
20739;SDS011;10530;49.968;19.844;2023-03-13T17:28:49;6.15;;;2.30;;
20739;SDS011;10530;49.968;19.844;2023-03-13T17:33:54;5.90;;;2.33;;
20739;SDS011;10530;49.968;19.844;2023-03-13T17:38:57;6.78;;;2.15;;
20739;SDS011;10530;49.968;19.844;2023-03-13T17:44:01;7.10;;;2.03;;
20739;SDS011;10530;49.968;19.844;2023-03-13T17:49:05;5.60;;;2.17;;
20739;SDS011;10530;49.968;19.844;2023-03-13T17:54:08;5.28;;;1.98;;
20739;SDS011;10530;49.968;19.844;2023-03-13T17:59:14;5.77;;;2.00;;
20739;SDS011;10530;49.968;19.844;2023-03-13T18:04:18;5.43;;;1.67;;
20739;SDS011;10530;49.968;19.844;2023-03-13T18:09:21;7.17;;;1.90;;
20739;SDS011;10530;49.968;19.844;2023-03-13T18:14:24;6.78;;;2.50;;
20739;SDS011;10530;49.968;19.844;2023-03-13T18:19:27;9.00;;;2.50;;
20739;SDS011;10530;49.968;19.844;2023-03-13T18:24:31;6.50;;;2.03;;
20739;SDS011;10530;49.968;19.844;2023-03-13T18:29:35;6.50;;;2.38;;
20739;SDS011;10530;49.968;19.844;2023-03-13T18:34:37;5.17;;;2.10;;
20739;SDS011;10530;49.968;19.844;2023-03-13T18:39:41;8.10;;;2.53;;
20739;SDS011;10530;49.968;19.844;2023-03-13T18:44:44;5.90;;;2.40;;
20739;SDS011;10530;49.968;19.844;2023-03-13T18:49:47;8.93;;;2.73;;
20739;SDS011;10530;49.968;19.844;2023-03-13T18:54:52;7.75;;;2.58;;
20739;SDS011;10530;49.968;19.844;2023-03-13T18:59:55;7.17;;;2.83;;
20739;SDS011;10530;49.968;19.844;2023-03-13T19:04:58;12.85;;;5.68;;
20739;SDS011;10530;49.968;19.844;2023-03-13T19:10:01;8.90;;;3.22;;
20739;SDS011;10530;49.968;19.844;2023-03-13T19:15:05;9.23;;;3.13;;
20739;SDS011;10530;49.968;19.844;2023-03-13T19:20:17;10.32;;;4.00;;
20739;SDS011;10530;49.968;19.844;2023-03-13T19:25:21;12.63;;;4.87;;
20739;SDS011;10530;49.968;19.844;2023-03-13T19:30:24;13.63;;;4.50;;
20739;SDS011;10530;49.968;19.844;2023-03-13T19:35:27;16.27;;;7.90;;
20739;SDS011;10530;49.968;19.844;2023-03-13T19:40:30;14.83;;;5.23;;
20739;SDS011;10530;49.968;19.844;2023-03-13T19:45:33;6.75;;;2.80;;
20739;SDS011;10530;49.968;19.844;2023-03-13T19:50:36;8.37;;;3.23;;
20739;SDS011;10530;49.968;19.844;2023-03-13T19:55:39;9.57;;;3.35;;
20739;SDS011;10530;49.968;19.844;2023-03-13T20:00:41;9.43;;;3.47;;
20739;SDS011;10530;49.968;19.844;2023-03-13T20:05:44;11.00;;;4.23;;
20739;SDS011;10530;49.968;19.844;2023-03-13T20:10:47;23.40;;;9.90;;
20739;SDS011;10530;49.968;19.844;2023-03-13T20:15:50;12.33;;;4.93;;
20739;SDS011;10530;49.968;19.844;2023-03-13T20:20:53;9.48;;;4.20;;
20739;SDS011;10530;49.968;19.844;2023-03-13T20:26:00;9.68;;;3.70;;
20739;SDS011;10530;49.968;19.844;2023-03-13T20:31:05;13.87;;;4.23;;
20739;SDS011;10530;49.968;19.844;2023-03-13T20:36:10;10.82;;;4.18;;
20739;SDS011;10530;49.968;19.844;2023-03-13T20:41:14;11.57;;;3.37;;
20739;SDS011;10530;49.968;19.844;2023-03-13T20:46:17;13.00;;;3.83;;
20739;SDS011;10530;49.968;19.844;2023-03-13T20:51:20;8.98;;;2.63;;
20739;SDS011;10530;49.968;19.844;2023-03-13T20:56:23;8.80;;;3.47;;
20739;SDS011;10530;49.968;19.844;2023-03-13T21:01:26;9.93;;;3.95;;
20739;SDS011;10530;49.968;19.844;2023-03-13T21:06:31;10.03;;;4.13;;
20739;SDS011;10530;49.968;19.844;2023-03-13T21:11:35;10.57;;;3.60;;
20739;SDS011;10530;49.968;19.844;2023-03-13T21:16:37;6.32;;;2.28;;
20739;SDS011;10530;49.968;19.844;2023-03-13T21:21:40;7.20;;;2.67;;
20739;SDS011;10530;49.968;19.844;2023-03-13T21:26:43;10.80;;;2.83;;
20739;SDS011;10530;49.968;19.844;2023-03-13T21:31:46;7.33;;;2.90;;
20739;SDS011;10530;49.968;19.844;2023-03-13T21:36:48;7.78;;;2.42;;
20739;SDS011;10530;49.968;19.844;2023-03-13T21:41:51;6.20;;;2.40;;
20739;SDS011;10530;49.968;19.844;2023-03-13T21:46:54;9.03;;;2.23;;
20739;SDS011;10530;49.968;19.844;2023-03-13T21:51:56;6.25;;;2.13;;
20739;SDS011;10530;49.968;19.844;2023-03-13T21:56:59;5.23;;;1.80;;
20739;SDS011;10530;49.968;19.844;2023-03-13T22:02:02;5.70;;;2.30;;
20739;SDS011;10530;49.968;19.844;2023-03-13T22:07:05;6.00;;;1.90;;
20739;SDS011;10530;49.968;19.844;2023-03-13T22:12:08;7.90;;;2.17;;
20739;SDS011;10530;49.968;19.844;2023-03-13T22:17:11;5.63;;;2.00;;
20739;SDS011;10530;49.968;19.844;2023-03-13T22:22:17;5.90;;;1.80;;
20739;SDS011;10530;49.968;19.844;2023-03-13T22:27:22;5.88;;;2.03;;
20739;SDS011;10530;49.968;19.844;2023-03-13T22:32:26;5.82;;;1.95;;
20739;SDS011;10530;49.968;19.844;2023-03-13T22:37:29;4.93;;;1.83;;
20739;SDS011;10530;49.968;19.844;2023-03-13T22:42:31;9.60;;;3.35;;
20739;SDS011;10530;49.968;19.844;2023-03-13T22:47:34;21.43;;;6.00;;
20739;SDS011;10530;49.968;19.844;2023-03-13T22:52:37;14.48;;;5.15;;
20739;SDS011;10530;49.968;19.844;2023-03-13T22:57:40;9.80;;;3.30;;
20739;SDS011;10530;49.968;19.844;2023-03-13T23:02:43;9.80;;;3.77;;
20739;SDS011;10530;49.968;19.844;2023-03-13T23:07:45;10.43;;;3.33;;
20739;SDS011;10530;49.968;19.844;2023-03-13T23:12:51;6.47;;;2.23;;
20739;SDS011;10530;49.968;19.844;2023-03-13T23:17:53;6.50;;;2.20;;
20739;SDS011;10530;49.968;19.844;2023-03-13T23:22:56;5.28;;;1.83;;
20739;SDS011;10530;49.968;19.844;2023-03-13T23:27:59;7.23;;;2.20;;
20739;SDS011;10530;49.968;19.844;2023-03-13T23:33:01;5.70;;;1.70;;
20739;SDS011;10530;49.968;19.844;2023-03-13T23:38:05;3.50;;;1.00;;
20739;SDS011;10530;49.968;19.844;2023-03-13T23:43:07;4.57;;;1.27;;
20739;SDS011;10530;49.968;19.844;2023-03-13T23:48:10;5.20;;;1.30;;
20739;SDS011;10530;49.968;19.844;2023-03-13T23:53:13;4.60;;;1.50;;
20739;SDS011;10530;49.968;19.844;2023-03-13T23:58:15;4.45;;;1.52;;
